createdAt,value
2023-05-15T00:00:01.990Z,50.54206198088878
2023-05-15T00:15:01.642Z,50.87212987349223
2023-05-15T00:30:02.238Z,51.42015090123899
2023-05-15T00:45:01.888Z,51.599436586162916
2023-05-15T01:00:02.487Z,51.546516900437794
2023-05-15T01:15:02.106Z,53.639995288986725
2023-05-15T01:30:01.770Z,54.0436468094213
2023-05-15T01:45:02.384Z,52.77661815962751
2023-05-15T02:00:02.036Z,53.17980418662677
2023-05-15T02:15:01.676Z,54.96672889761054
2023-05-15T02:30:02.376Z,53.166788357969416
2023-05-15T02:45:02.004Z,53.30426269974992
2023-05-15T03:00:01.633Z,53.614978138114736
2023-05-15T03:15:02.262Z,54.429519639047314
2023-05-15T03:30:01.921Z,53.78504588445874
2023-05-15T03:45:01.592Z,53.727927295805166
2023-05-15T04:00:02.243Z,54.338340864921285
2023-05-15T04:15:01.878Z,54.94386518768693
2023-05-15T04:30:02.074Z,54.95077475360637
2023-05-15T04:45:01.761Z,55.233082508689435
2023-05-15T05:00:02.370Z,56.27872829954452
2023-05-15T05:15:01.982Z,57.49999205234494
2023-05-15T05:30:01.710Z,57.17256010991271
2023-05-15T05:45:02.341Z,58.67238764766344
2023-05-15T06:00:02.032Z,60.9010398553824
2023-05-15T06:15:01.658Z,60.50234250092854
2023-05-15T06:30:02.393Z,60.77879030387284
2023-05-15T06:45:02.041Z,60.398639861478685
2023-05-15T07:00:01.636Z,62.12266273481237
2023-05-15T07:15:02.272Z,61.88114627931853
2023-05-15T07:30:01.920Z,60.79058690728943
2023-05-15T07:45:02.575Z,59.38017694173419
2023-05-15T08:00:02.200Z,59.72540253998718
2023-05-15T08:15:01.980Z,59.831188488442685
2023-05-15T08:30:01.683Z,57.74909721845552
2023-05-15T08:45:02.303Z,57.583286516779346
2023-05-15T09:00:01.888Z,55.81378592296384
2023-05-15T09:15:02.529Z,55.58304182218237
2023-05-15T09:30:02.217Z,54.89260005048564
2023-05-15T09:45:01.883Z,55.40028838957867
2023-05-15T10:00:02.551Z,54.71864454875105
2023-05-15T10:15:02.213Z,54.35294586442907
2023-05-15T10:30:01.894Z,53.01142902418611
2023-05-15T10:45:02.519Z,52.36244171575231
2023-05-15T11:00:02.119Z,51.55413474576313
2023-05-15T11:15:01.784Z,51.70574563159559
2023-05-15T11:30:02.458Z,50.766178730031335
2023-05-15T11:45:02.089Z,49.77217776943596
2023-05-15T12:00:01.819Z,48.95153016055195
2023-05-15T12:15:02.437Z,48.11687740182581
2023-05-15T12:30:02.102Z,47.11829273585723
2023-05-15T12:45:01.687Z,46.559586481115936
2023-05-15T13:00:02.334Z,46.366907118643994
2023-05-15T13:15:02.026Z,46.362028354715186
2023-05-15T13:30:01.691Z,44.87313976669987
2023-05-15T13:45:02.344Z,42.606506555405915
2023-05-15T14:00:01.942Z,42.17712286682425
2023-05-15T14:15:01.575Z,41.95956581050592
2023-05-15T14:30:02.294Z,39.705629321339806
2023-05-15T14:45:01.923Z,36.61436239707982
2023-05-15T15:00:01.530Z,37.10329146770277
2023-05-15T15:15:02.122Z,37.3216750422021
2023-05-15T15:30:01.751Z,35.692888300137405
2023-05-15T15:45:02.337Z,37.36927558998221
2023-05-15T16:00:02.038Z,37.25739959589987
2023-05-15T16:15:13.379Z,38.82577411657462
2023-05-15T16:30:02.416Z,39.09837625173362
2023-05-15T16:45:02.054Z,38.850594421143505
2023-05-15T17:00:01.693Z,40.34382079862677
2023-05-15T17:15:02.316Z,41.104491478906446
2023-05-15T17:30:01.992Z,42.39868846702767
2023-05-15T17:45:01.736Z,42.70832815749945
2023-05-15T18:00:02.354Z,41.98974815851052
2023-05-15T18:15:01.970Z,42.93251108166465
2023-05-15T18:30:01.617Z,44.49838669090855
2023-05-15T18:45:02.338Z,45.4316346016697
2023-05-15T19:00:01.958Z,45.46331087075548
2023-05-15T19:15:01.613Z,47.52055834465046
2023-05-15T19:30:02.301Z,49.06114374537898
2023-05-15T19:45:01.973Z,50.062885361124344
2023-05-15T20:00:01.560Z,50.51629172430018
2023-05-15T20:15:02.215Z,51.13590846894859
2023-05-15T20:30:01.907Z,52.231790642613646
2023-05-15T20:45:02.522Z,53.11811793353831
2023-05-15T21:00:02.207Z,54.369026645465276
2023-05-15T21:15:01.933Z,54.65623536091647
2023-05-15T21:30:01.638Z,54.70041695335912
2023-05-15T21:45:03.685Z,55.3972545790909
2023-05-15T22:00:01.560Z,55.289202745693416
2023-05-15T22:15:02.204Z,56.50197885443571
2023-05-15T22:30:01.833Z,55.93219746496802
2023-05-15T22:45:02.436Z,56.46417481714612
2023-05-15T23:00:02.019Z,56.405664603862384
2023-05-15T23:15:01.634Z,56.01968856711481
2023-05-15T23:30:02.285Z,56.65296599134958
2023-05-15T23:45:01.920Z,56.930324339548385
